createdAt,value
2022-08-31T00:02:28.567Z,18.39
2022-08-31T00:07:59.815Z,18.37
2022-08-31T00:13:30.788Z,18.34
2022-08-31T00:19:02.781Z,18.34
2022-08-31T00:24:34.290Z,18.30
2022-08-31T00:30:08.047Z,18.28
2022-08-31T00:35:42.177Z,18.26
2022-08-31T00:41:12.999Z,18.22
2022-08-31T00:46:44.498Z,18.20
2022-08-31T00:52:22.298Z,18.19
2022-08-31T00:57:54.824Z,18.17
2022-08-31T01:03:25.704Z,18.15
2022-08-31T01:08:59.036Z,18.14
2022-08-31T01:14:29.879Z,18.12
2022-08-31T01:20:08.480Z,18.10
2022-08-31T01:25:42.592Z,18.09
2022-08-31T01:31:24.709Z,18.07
2022-08-31T01:36:56.038Z,18.04
2022-08-31T01:42:33.479Z,18.03
2022-08-31T01:48:06.067Z,18.00
2022-08-31T01:53:37.561Z,17.99
2022-08-31T01:59:11.483Z,17.96
2022-08-31T02:05:03.457Z,17.95
2022-08-31T02:10:34.824Z,17.95
2022-08-31T02:16:06.642Z,17.91
2022-08-31T02:21:38.436Z,17.89
2022-08-31T02:27:10.041Z,17.86
2022-08-31T02:32:42.161Z,17.86
2022-08-31T02:38:13.823Z,17.84
2022-08-31T02:43:45.623Z,17.82
2022-08-31T02:49:17.221Z,17.80
2022-08-31T02:54:48.582Z,17.76
2022-08-31T03:00:21.409Z,17.74
2022-08-31T03:05:52.597Z,17.72
2022-08-31T03:11:23.852Z,17.69
2022-08-31T03:16:55.472Z,17.67
2022-08-31T03:22:28.155Z,17.66
2022-08-31T03:27:59.536Z,17.65
2022-08-31T03:33:34.473Z,17.64
2022-08-31T03:39:05.682Z,17.63
2022-08-31T03:44:37.895Z,17.61
2022-08-31T03:50:13.528Z,17.59
2022-08-31T03:56:08.842Z,17.57
2022-08-31T04:01:45.255Z,17.56
2022-08-31T04:07:42.212Z,17.54
2022-08-31T04:13:38.147Z,17.53
2022-08-31T04:19:35.288Z,17.50
2022-08-31T04:25:21.553Z,17.51
2022-08-31T04:30:53.240Z,17.49
2022-08-31T04:36:26.711Z,17.47
2022-08-31T04:41:58.603Z,17.46
2022-08-31T04:47:31.254Z,17.45
2022-08-31T04:53:03.365Z,17.43
2022-08-31T04:58:35.716Z,17.40
2022-08-31T05:04:09.723Z,17.39
2022-08-31T05:09:41.155Z,17.37
2022-08-31T05:15:12.006Z,17.38
2022-08-31T05:20:43.536Z,17.36
2022-08-31T05:26:18.559Z,17.37
2022-08-31T05:31:52.643Z,17.38
2022-08-31T05:37:24.342Z,17.37
2022-08-31T05:42:59.630Z,17.37
2022-08-31T05:48:34.280Z,17.37
2022-08-31T05:54:08.141Z,17.39
2022-08-31T05:59:40.355Z,17.38
2022-08-31T06:05:12.810Z,17.39
2022-08-31T06:10:45.211Z,17.42
2022-08-31T06:16:17.953Z,17.44
2022-08-31T06:21:51.729Z,17.48
2022-08-31T06:27:30.071Z,17.50
2022-08-31T06:33:03.248Z,17.50
2022-08-31T06:38:51.981Z,17.50
2022-08-31T06:44:42.526Z,17.52
2022-08-31T06:50:24.063Z,17.53
2022-08-31T06:55:56.701Z,17.54
2022-08-31T07:02:01.793Z,17.53
2022-08-31T07:07:37.587Z,17.53
2022-08-31T07:13:09.195Z,17.54
2022-08-31T07:18:40.619Z,17.52
2022-08-31T07:24:14.687Z,17.53
2022-08-31T07:29:45.967Z,17.53
2022-08-31T07:35:19.531Z,17.55
2022-08-31T07:41:21.634Z,17.57
2022-08-31T07:46:55.525Z,17.58
2022-08-31T07:52:31.106Z,17.59
2022-08-31T07:58:15.931Z,17.58
2022-08-31T08:03:53.752Z,17.58
2022-08-31T08:09:43.868Z,17.61
2022-08-31T08:15:40.869Z,17.60
2022-08-31T08:21:35.053Z,17.59
2022-08-31T08:27:08.028Z,17.59
2022-08-31T08:33:04.064Z,17.59
2022-08-31T08:38:42.570Z,17.61
2022-08-31T08:44:19.052Z,17.63
2022-08-31T08:49:57.499Z,17.63
2022-08-31T08:55:41.872Z,17.65
2022-08-31T09:01:23.140Z,17.68
2022-08-31T09:07:31.200Z,17.73
2022-08-31T09:13:36.372Z,17.80
2022-08-31T09:19:17.741Z,17.87
2022-08-31T09:24:56.411Z,17.90
2022-08-31T09:30:52.515Z,17.93
2022-08-31T09:36:33.906Z,17.98
2022-08-31T09:42:14.917Z,18.00
2022-08-31T09:47:53.152Z,18.03
2022-08-31T09:53:47.198Z,18.03
2022-08-31T09:59:29.090Z,18.05
2022-08-31T10:05:06.591Z,18.07
2022-08-31T10:10:39.169Z,18.10
2022-08-31T10:16:30.659Z,18.10
2022-08-31T10:22:25.778Z,18.12
2022-08-31T10:28:16.542Z,18.09
2022-08-31T10:34:14.747Z,18.04
2022-08-31T10:39:54.238Z,17.99
2022-08-31T10:45:29.166Z,17.96
2022-08-31T10:51:06.686Z,17.96
2022-08-31T10:57:09.406Z,17.98
2022-08-31T11:03:22.134Z,18.00
2022-08-31T11:09:19.782Z,18.01
2022-08-31T11:15:10.803Z,18.02
2022-08-31T11:20:52.409Z,18.04
2022-08-31T11:26:57.882Z,18.07
2022-08-31T11:32:34.952Z,18.11
2022-08-31T11:38:06.567Z,18.16
2022-08-31T11:43:47.182Z,18.20
2022-08-31T11:49:51.836Z,18.25
2022-08-31T11:55:28.981Z,18.29
2022-08-31T12:01:11.708Z,18.34
2022-08-31T12:07:04.381Z,18.36
2022-08-31T12:12:59.407Z,18.40
2022-08-31T12:18:46.296Z,18.43
2022-08-31T12:24:18.608Z,18.47
2022-08-31T12:29:50.483Z,18.48
2022-08-31T12:35:27.478Z,18.47
2022-08-31T12:40:58.732Z,18.45
2022-08-31T12:46:38.086Z,18.45
2022-08-31T12:52:40.076Z,18.44
2022-08-31T12:58:26.022Z,18.44
2022-08-31T13:04:00.632Z,18.46
2022-08-31T13:09:35.732Z,18.46
2022-08-31T13:15:14.311Z,18.46
2022-08-31T13:20:47.087Z,18.46
2022-08-31T13:26:25.488Z,18.45
2022-08-31T13:31:56.375Z,18.45
2022-08-31T13:37:32.670Z,18.44
2022-08-31T13:43:09.715Z,18.44
2022-08-31T13:48:40.885Z,18.46
2022-08-31T13:54:28.389Z,18.46
2022-08-31T14:00:32.195Z,18.46
2022-08-31T14:06:29.069Z,18.47
2022-08-31T14:12:04.534Z,18.47
2022-08-31T14:17:43.174Z,18.47
2022-08-31T14:23:27.462Z,18.49
2022-08-31T14:29:10.867Z,18.53
2022-08-31T14:34:47.399Z,18.53
2022-08-31T14:40:19.183Z,18.53
2022-08-31T14:45:51.209Z,18.51
2022-08-31T14:51:24.131Z,18.55
2022-08-31T14:56:58.358Z,18.60
2022-08-31T15:02:34.344Z,18.67
2022-08-31T15:08:06.376Z,18.73
2022-08-31T15:13:40.039Z,18.77
2022-08-31T15:19:15.253Z,18.78
2022-08-31T15:24:46.624Z,18.81
2022-08-31T15:30:19.980Z,18.81
2022-08-31T15:36:02.100Z,18.83
2022-08-31T15:41:33.480Z,18.84
2022-08-31T15:47:26.141Z,18.85
2022-08-31T15:53:08.299Z,18.84
2022-08-31T15:58:41.412Z,18.84
2022-08-31T16:04:16.599Z,18.83
2022-08-31T16:09:48.023Z,18.83
2022-08-31T16:15:23.366Z,18.83
2022-08-31T16:20:56.415Z,18.81
2022-08-31T16:26:42.623Z,18.79
2022-08-31T16:32:13.675Z,18.79
2022-08-31T16:37:44.903Z,18.79
2022-08-31T16:43:15.850Z,18.77
2022-08-31T16:49:05.735Z,18.76
2022-08-31T16:54:46.218Z,18.74
2022-08-31T17:00:18.046Z,18.72
2022-08-31T17:05:52.910Z,18.72
2022-08-31T17:11:29.447Z,18.70
2022-08-31T17:17:03.757Z,18.68
2022-08-31T17:22:36.279Z,18.66
2022-08-31T17:28:07.980Z,18.64
2022-08-31T17:33:39.962Z,18.63
2022-08-31T17:39:12.409Z,18.62
2022-08-31T17:44:48.238Z,18.60
2022-08-31T17:50:21.375Z,18.56
2022-08-31T17:55:56.401Z,18.55
2022-08-31T18:01:42.432Z,18.53
2022-08-31T18:07:17.681Z,18.52
2022-08-31T18:12:48.689Z,18.48
2022-08-31T18:18:20.091Z,18.47
2022-08-31T18:23:53.232Z,18.44
2022-08-31T18:29:25.122Z,18.41
2022-08-31T18:34:57.411Z,18.39
2022-08-31T18:40:48.263Z,18.36
2022-08-31T18:46:24.918Z,18.34
2022-08-31T18:52:01.334Z,18.31
2022-08-31T18:57:33.357Z,18.29
2022-08-31T19:03:04.447Z,18.27
2022-08-31T19:08:35.817Z,18.25
2022-08-31T19:14:06.679Z,18.22
2022-08-31T19:19:38.319Z,18.20
2022-08-31T19:25:11.118Z,18.20
2022-08-31T19:31:08.758Z,18.18
2022-08-31T19:37:16.712Z,18.15
2022-08-31T19:43:00.198Z,18.12
2022-08-31T19:48:44.284Z,18.12
2022-08-31T19:54:45.887Z,18.09
2022-08-31T20:00:36.321Z,18.07
2022-08-31T20:06:13.183Z,18.04
2022-08-31T20:18:27.491Z,17.99
2022-08-31T20:24:09.594Z,17.95
2022-08-31T20:29:46.093Z,17.90
2022-08-31T20:35:20.385Z,17.87
2022-08-31T20:40:58.002Z,17.82
2022-08-31T20:46:48.155Z,17.82
2022-08-31T20:52:22.727Z,17.78
2022-08-31T20:57:54.914Z,17.72
2022-08-31T21:03:27.152Z,17.67
2022-08-31T21:08:59.990Z,17.62
2022-08-31T21:14:39.302Z,17.60
2022-08-31T21:20:15.823Z,17.56
2022-08-31T21:25:48.330Z,17.51
2022-08-31T21:31:27.656Z,17.48
2022-08-31T21:37:01.761Z,17.45
2022-08-31T21:42:33.825Z,17.40
2022-08-31T21:48:05.772Z,17.37
2022-08-31T21:53:40.326Z,17.35
2022-08-31T21:59:13.465Z,17.33
2022-08-31T22:04:44.841Z,17.29
2022-08-31T22:10:16.205Z,17.26
2022-08-31T22:15:48.114Z,17.22
2022-08-31T22:21:26.054Z,17.20
2022-08-31T22:26:59.388Z,17.20
2022-08-31T22:32:31.416Z,17.16
2022-08-31T22:38:02.501Z,17.12
2022-08-31T22:43:33.729Z,17.09
2022-08-31T22:49:06.000Z,17.05
2022-08-31T22:54:37.325Z,17.01
2022-08-31T23:00:12.548Z,16.98
2022-08-31T23:05:44.291Z,16.94
2022-08-31T23:11:16.817Z,16.89
2022-08-31T23:17:01.227Z,16.85
2022-08-31T23:22:32.898Z,16.83
2022-08-31T23:28:04.038Z,16.78
2022-08-31T23:33:36.398Z,16.77
2022-08-31T23:39:08.711Z,16.74
2022-08-31T23:44:44.464Z,16.72
2022-08-31T23:50:16.667Z,16.67
2022-08-31T23:55:48.210Z,16.65
